sensor_id;sensor_type;location;lat;lon;timestamp;P1;durP1;ratioP1;P2;durP2;ratioP2
36371;SDS011;22398;51.346;12.372;2023-02-22T00:04:04;9.20;;;4.15;;
36371;SDS011;22398;51.346;12.372;2023-02-22T00:09:08;7.97;;;4.30;;
36371;SDS011;22398;51.346;12.372;2023-02-22T00:14:13;11.18;;;4.80;;
36371;SDS011;22398;51.346;12.372;2023-02-22T00:19:18;12.05;;;6.00;;
36371;SDS011;22398;51.346;12.372;2023-02-22T00:24:21;12.80;;;4.55;;
36371;SDS011;22398;51.346;12.372;2023-02-22T00:29:26;12.27;;;4.78;;
36371;SDS011;22398;51.346;12.372;2023-02-22T00:34:30;17.80;;;5.40;;
36371;SDS011;22398;51.346;12.372;2023-02-22T00:39:33;14.20;;;5.90;;
36371;SDS011;22398;51.346;12.372;2023-02-22T00:44:38;16.48;;;7.57;;
36371;SDS011;22398;51.346;12.372;2023-02-22T00:49:41;15.27;;;5.57;;
36371;SDS011;22398;51.346;12.372;2023-02-22T00:54:45;15.27;;;5.95;;
36371;SDS011;22398;51.346;12.372;2023-02-22T00:59:50;12.45;;;6.50;;
36371;SDS011;22398;51.346;12.372;2023-02-22T01:04:53;20.63;;;7.20;;
36371;SDS011;22398;51.346;12.372;2023-02-22T01:09:57;13.77;;;5.93;;
36371;SDS011;22398;51.346;12.372;2023-02-22T01:15:02;15.35;;;7.00;;
36371;SDS011;22398;51.346;12.372;2023-02-22T01:20:07;18.65;;;6.65;;
36371;SDS011;22398;51.346;12.372;2023-02-22T01:25:14;14.95;;;6.60;;
36371;SDS011;22398;51.346;12.372;2023-02-22T01:30:21;15.18;;;6.45;;
36371;SDS011;22398;51.346;12.372;2023-02-22T01:35:27;20.05;;;6.70;;
36371;SDS011;22398;51.346;12.372;2023-02-22T01:45:39;14.63;;;6.32;;
36371;SDS011;22398;51.346;12.372;2023-02-22T01:50:47;13.60;;;6.22;;
36371;SDS011;22398;51.346;12.372;2023-02-22T01:55:55;17.45;;;6.82;;
36371;SDS011;22398;51.346;12.372;2023-02-22T02:06:08;14.45;;;6.90;;
36371;SDS011;22398;51.346;12.372;2023-02-22T02:11:14;13.93;;;5.85;;
36371;SDS011;22398;51.346;12.372;2023-02-22T02:16:22;14.05;;;6.10;;
36371;SDS011;22398;51.346;12.372;2023-02-22T02:21:41;17.33;;;7.07;;
36371;SDS011;22398;51.346;12.372;2023-02-22T02:27:15;19.00;;;8.57;;
36371;SDS011;22398;51.346;12.372;2023-02-22T02:32:23;13.30;;;6.72;;
36371;SDS011;22398;51.346;12.372;2023-02-22T02:37:34;16.98;;;5.78;;
36371;SDS011;22398;51.346;12.372;2023-02-22T02:42:43;19.13;;;7.05;;
36371;SDS011;22398;51.346;12.372;2023-02-22T02:47:54;17.30;;;6.38;;
36371;SDS011;22398;51.346;12.372;2023-02-22T02:53:01;19.85;;;6.85;;
36371;SDS011;22398;51.346;12.372;2023-02-22T02:58:10;12.93;;;6.70;;
36371;SDS011;22398;51.346;12.372;2023-02-22T03:03:30;14.38;;;5.65;;
36371;SDS011;22398;51.346;12.372;2023-02-22T03:08:52;14.60;;;6.35;;
36371;SDS011;22398;51.346;12.372;2023-02-22T03:14:06;16.05;;;6.75;;
36371;SDS011;22398;51.346;12.372;2023-02-22T03:19:20;13.07;;;5.97;;
36371;SDS011;22398;51.346;12.372;2023-02-22T03:24:30;15.82;;;7.15;;
36371;SDS011;22398;51.346;12.372;2023-02-22T03:29:36;13.75;;;6.68;;
36371;SDS011;22398;51.346;12.372;2023-02-22T03:34:46;13.02;;;6.35;;
36371;SDS011;22398;51.346;12.372;2023-02-22T03:39:55;14.32;;;6.90;;
36371;SDS011;22398;51.346;12.372;2023-02-22T03:45:05;19.58;;;7.35;;
36371;SDS011;22398;51.346;12.372;2023-02-22T03:50:14;13.55;;;5.97;;
36371;SDS011;22398;51.346;12.372;2023-02-22T03:55:19;16.33;;;7.22;;
36371;SDS011;22398;51.346;12.372;2023-02-22T04:00:25;15.10;;;6.53;;
36371;SDS011;22398;51.346;12.372;2023-02-22T04:05:32;17.50;;;7.43;;
36371;SDS011;22398;51.346;12.372;2023-02-22T04:10:36;15.23;;;6.93;;
36371;SDS011;22398;51.346;12.372;2023-02-22T04:15:39;16.55;;;7.13;;
36371;SDS011;22398;51.346;12.372;2023-02-22T04:20:46;17.33;;;7.20;;
36371;SDS011;22398;51.346;12.372;2023-02-22T04:25:58;16.92;;;7.53;;
36371;SDS011;22398;51.346;12.372;2023-02-22T04:31:04;15.45;;;7.10;;
36371;SDS011;22398;51.346;12.372;2023-02-22T04:36:09;17.52;;;7.35;;
36371;SDS011;22398;51.346;12.372;2023-02-22T04:41:15;20.52;;;7.03;;
36371;SDS011;22398;51.346;12.372;2023-02-22T04:46:20;22.02;;;7.95;;
36371;SDS011;22398;51.346;12.372;2023-02-22T04:51:27;19.63;;;8.10;;
36371;SDS011;22398;51.346;12.372;2023-02-22T04:56:33;22.08;;;9.02;;
36371;SDS011;22398;51.346;12.372;2023-02-22T05:01:37;20.92;;;7.82;;
36371;SDS011;22398;51.346;12.372;2023-02-22T05:06:41;17.65;;;8.10;;
36371;SDS011;22398;51.346;12.372;2023-02-22T05:11:45;22.33;;;9.33;;
36371;SDS011;22398;51.346;12.372;2023-02-22T05:16:48;22.63;;;9.55;;
36371;SDS011;22398;51.346;12.372;2023-02-22T05:21:53;21.00;;;9.13;;
36371;SDS011;22398;51.346;12.372;2023-02-22T05:26:56;24.58;;;8.73;;
36371;SDS011;22398;51.346;12.372;2023-02-22T05:32:00;23.67;;;9.38;;
36371;SDS011;22398;51.346;12.372;2023-02-22T05:37:05;18.85;;;8.30;;
36371;SDS011;22398;51.346;12.372;2023-02-22T05:42:08;24.67;;;9.90;;
36371;SDS011;22398;51.346;12.372;2023-02-22T05:47:11;20.60;;;8.75;;
36371;SDS011;22398;51.346;12.372;2023-02-22T05:52:16;18.20;;;8.73;;
36371;SDS011;22398;51.346;12.372;2023-02-22T05:57:20;20.30;;;8.93;;
36371;SDS011;22398;51.346;12.372;2023-02-22T06:02:23;20.30;;;8.93;;
36371;SDS011;22398;51.346;12.372;2023-02-22T06:07:28;22.25;;;8.85;;
36371;SDS011;22398;51.346;12.372;2023-02-22T06:12:31;15.93;;;7.67;;
36371;SDS011;22398;51.346;12.372;2023-02-22T06:17:35;23.20;;;8.25;;
36371;SDS011;22398;51.346;12.372;2023-02-22T06:22:41;20.77;;;8.33;;
36371;SDS011;22398;51.346;12.372;2023-02-22T06:27:46;19.92;;;7.82;;
36371;SDS011;22398;51.346;12.372;2023-02-22T06:32:49;25.25;;;9.85;;
36371;SDS011;22398;51.346;12.372;2023-02-22T06:37:54;23.05;;;9.50;;
36371;SDS011;22398;51.346;12.372;2023-02-22T06:42:57;19.13;;;8.80;;
36371;SDS011;22398;51.346;12.372;2023-02-22T06:48:01;25.65;;;9.25;;
36371;SDS011;22398;51.346;12.372;2023-02-22T06:53:06;33.15;;;9.55;;
36371;SDS011;22398;51.346;12.372;2023-02-22T06:58:11;28.60;;;10.55;;
36371;SDS011;22398;51.346;12.372;2023-02-22T07:03:14;21.02;;;9.32;;
36371;SDS011;22398;51.346;12.372;2023-02-22T07:08:19;21.33;;;8.70;;
36371;SDS011;22398;51.346;12.372;2023-02-22T07:13:22;18.97;;;8.03;;
36371;SDS011;22398;51.346;12.372;2023-02-22T07:18:26;18.90;;;8.88;;
36371;SDS011;22398;51.346;12.372;2023-02-22T07:23:32;19.87;;;6.87;;
36371;SDS011;22398;51.346;12.372;2023-02-22T07:28:36;21.20;;;7.63;;
36371;SDS011;22398;51.346;12.372;2023-02-22T07:33:46;19.48;;;7.93;;
36371;SDS011;22398;51.346;12.372;2023-02-22T07:38:53;17.27;;;7.95;;
36371;SDS011;22398;51.346;12.372;2023-02-22T07:43:57;15.13;;;7.45;;
36371;SDS011;22398;51.346;12.372;2023-02-22T07:49:00;16.90;;;7.38;;
36371;SDS011;22398;51.346;12.372;2023-02-22T07:54:05;19.70;;;9.07;;
36371;SDS011;22398;51.346;12.372;2023-02-22T07:59:08;24.50;;;8.23;;
36371;SDS011;22398;51.346;12.372;2023-02-22T08:04:11;21.75;;;8.38;;
36371;SDS011;22398;51.346;12.372;2023-02-22T08:09:16;16.65;;;8.20;;
36371;SDS011;22398;51.346;12.372;2023-02-22T08:14:19;15.07;;;6.72;;
36371;SDS011;22398;51.346;12.372;2023-02-22T08:19:23;21.27;;;8.95;;
36371;SDS011;22398;51.346;12.372;2023-02-22T08:24:27;20.50;;;8.85;;
36371;SDS011;22398;51.346;12.372;2023-02-22T08:29:31;20.53;;;8.87;;
36371;SDS011;22398;51.346;12.372;2023-02-22T08:34:35;20.23;;;8.63;;
36371;SDS011;22398;51.346;12.372;2023-02-22T08:39:39;19.73;;;8.98;;
36371;SDS011;22398;51.346;12.372;2023-02-22T08:44:43;20.60;;;9.43;;
36371;SDS011;22398;51.346;12.372;2023-02-22T08:49:46;18.92;;;9.50;;
36371;SDS011;22398;51.346;12.372;2023-02-22T08:54:51;22.10;;;9.30;;
36371;SDS011;22398;51.346;12.372;2023-02-22T08:59:56;18.38;;;8.75;;
36371;SDS011;22398;51.346;12.372;2023-02-22T09:04:59;23.17;;;10.00;;
36371;SDS011;22398;51.346;12.372;2023-02-22T09:10:04;20.55;;;8.60;;
36371;SDS011;22398;51.346;12.372;2023-02-22T09:15:08;22.88;;;8.50;;
36371;SDS011;22398;51.346;12.372;2023-02-22T09:20:12;21.35;;;9.10;;
36371;SDS011;22398;51.346;12.372;2023-02-22T09:25:20;19.65;;;8.95;;
36371;SDS011;22398;51.346;12.372;2023-02-22T09:35:28;14.65;;;8.00;;
36371;SDS011;22398;51.346;12.372;2023-02-22T09:40:34;17.98;;;8.63;;
36371;SDS011;22398;51.346;12.372;2023-02-22T09:45:50;17.55;;;8.75;;
36371;SDS011;22398;51.346;12.372;2023-02-22T09:51:05;21.35;;;8.15;;
36371;SDS011;22398;51.346;12.372;2023-02-22T09:56:18;16.13;;;7.82;;
36371;SDS011;22398;51.346;12.372;2023-02-22T10:06:28;14.85;;;7.70;;
36371;SDS011;22398;51.346;12.372;2023-02-22T10:16:52;20.10;;;7.93;;
36371;SDS011;22398;51.346;12.372;2023-02-22T10:22:13;17.13;;;7.75;;
36371;SDS011;22398;51.346;12.372;2023-02-22T10:27:35;20.45;;;8.60;;
36371;SDS011;22398;51.346;12.372;2023-02-22T10:32:42;19.02;;;7.50;;
36371;SDS011;22398;51.346;12.372;2023-02-22T10:42:55;23.02;;;8.25;;
36371;SDS011;22398;51.346;12.372;2023-02-22T10:47:59;15.68;;;7.50;;
36371;SDS011;22398;51.346;12.372;2023-02-22T10:53:09;17.08;;;7.75;;
36371;SDS011;22398;51.346;12.372;2023-02-22T10:58:15;16.88;;;7.68;;
36371;SDS011;22398;51.346;12.372;2023-02-22T11:03:19;17.33;;;8.77;;
36371;SDS011;22398;51.346;12.372;2023-02-22T11:08:25;18.55;;;8.43;;
36371;SDS011;22398;51.346;12.372;2023-02-22T11:13:31;20.63;;;8.77;;
36371;SDS011;22398;51.346;12.372;2023-02-22T11:18:39;22.02;;;9.70;;
36371;SDS011;22398;51.346;12.372;2023-02-22T11:23:42;14.80;;;7.18;;
36371;SDS011;22398;51.346;12.372;2023-02-22T11:28:48;14.00;;;7.05;;
36371;SDS011;22398;51.346;12.372;2023-02-22T11:33:57;16.52;;;7.43;;
36371;SDS011;22398;51.346;12.372;2023-02-22T11:39:02;19.42;;;8.10;;
36371;SDS011;22398;51.346;12.372;2023-02-22T11:44:19;13.65;;;7.18;;
36371;SDS011;22398;51.346;12.372;2023-02-22T11:49:30;14.55;;;7.05;;
36371;SDS011;22398;51.346;12.372;2023-02-22T11:54:41;13.98;;;7.35;;
36371;SDS011;22398;51.346;12.372;2023-02-22T12:00:06;23.55;;;8.15;;
36371;SDS011;22398;51.346;12.372;2023-02-22T12:05:19;14.65;;;7.40;;
36371;SDS011;22398;51.346;12.372;2023-02-22T12:10:40;17.25;;;7.75;;
36371;SDS011;22398;51.346;12.372;2023-02-22T12:15:53;11.50;;;6.75;;
36371;SDS011;22398;51.346;12.372;2023-02-22T12:21:06;18.23;;;7.05;;
36371;SDS011;22398;51.346;12.372;2023-02-22T12:26:19;13.60;;;6.43;;
36371;SDS011;22398;51.346;12.372;2023-02-22T12:31:28;14.05;;;6.78;;
36371;SDS011;22398;51.346;12.372;2023-02-22T12:36:35;14.65;;;6.72;;
36371;SDS011;22398;51.346;12.372;2023-02-22T12:41:44;12.68;;;5.95;;
36371;SDS011;22398;51.346;12.372;2023-02-22T12:46:51;15.40;;;7.05;;
36371;SDS011;22398;51.346;12.372;2023-02-22T12:51:57;12.38;;;6.28;;
36371;SDS011;22398;51.346;12.372;2023-02-22T12:57:24;9.73;;;5.03;;
36371;SDS011;22398;51.346;12.372;2023-02-22T13:02:37;15.45;;;6.15;;
36371;SDS011;22398;51.346;12.372;2023-02-22T13:07:46;11.43;;;5.43;;
36371;SDS011;22398;51.346;12.372;2023-02-22T13:13:01;11.85;;;5.88;;
36371;SDS011;22398;51.346;12.372;2023-02-22T13:18:13;13.32;;;6.72;;
36371;SDS011;22398;51.346;12.372;2023-02-22T13:23:24;13.10;;;6.25;;
36371;SDS011;22398;51.346;12.372;2023-02-22T13:28:40;10.00;;;5.55;;
36371;SDS011;22398;51.346;12.372;2023-02-22T13:34:00;14.05;;;5.22;;
36371;SDS011;22398;51.346;12.372;2023-02-22T13:44:53;15.00;;;6.18;;
36371;SDS011;22398;51.346;12.372;2023-02-22T13:55:52;16.13;;;7.72;;
36371;SDS011;22398;51.346;12.372;2023-02-22T14:00:58;13.23;;;5.85;;
36371;SDS011;22398;51.346;12.372;2023-02-22T14:06:04;12.57;;;5.38;;
36371;SDS011;22398;51.346;12.372;2023-02-22T14:22:25;12.68;;;5.18;;
36371;SDS011;22398;51.346;12.372;2023-02-22T14:27:37;9.73;;;5.25;;
36371;SDS011;22398;51.346;12.372;2023-02-22T14:32:42;11.90;;;5.85;;
36371;SDS011;22398;51.346;12.372;2023-02-22T14:37:48;11.45;;;5.45;;
36371;SDS011;22398;51.346;12.372;2023-02-22T14:42:59;13.52;;;5.50;;
36371;SDS011;22398;51.346;12.372;2023-02-22T14:48:07;9.25;;;4.40;;
36371;SDS011;22398;51.346;12.372;2023-02-22T14:53:26;10.52;;;4.97;;
36371;SDS011;22398;51.346;12.372;2023-02-22T14:58:40;11.25;;;4.75;;
36371;SDS011;22398;51.346;12.372;2023-02-22T15:03:49;10.82;;;4.55;;
36371;SDS011;22398;51.346;12.372;2023-02-22T15:09:12;8.15;;;3.95;;
36371;SDS011;22398;51.346;12.372;2023-02-22T15:14:25;10.07;;;5.40;;
36371;SDS011;22398;51.346;12.372;2023-02-22T15:19:29;7.38;;;4.00;;
36371;SDS011;22398;51.346;12.372;2023-02-22T15:24:36;10.57;;;3.67;;
36371;SDS011;22398;51.346;12.372;2023-02-22T15:29:41;7.45;;;3.35;;
36371;SDS011;22398;51.346;12.372;2023-02-22T15:34:46;8.85;;;3.13;;
36371;SDS011;22398;51.346;12.372;2023-02-22T15:39:51;7.45;;;3.50;;
36371;SDS011;22398;51.346;12.372;2023-02-22T15:45:00;11.07;;;4.15;;
36371;SDS011;22398;51.346;12.372;2023-02-22T15:50:12;8.80;;;4.13;;
36371;SDS011;22398;51.346;12.372;2023-02-22T15:55:20;8.80;;;3.58;;
36371;SDS011;22398;51.346;12.372;2023-02-22T16:00:28;9.57;;;3.88;;
36371;SDS011;22398;51.346;12.372;2023-02-22T16:05:38;9.48;;;3.58;;
36371;SDS011;22398;51.346;12.372;2023-02-22T16:10:48;6.07;;;2.90;;
36371;SDS011;22398;51.346;12.372;2023-02-22T16:15:56;10.23;;;3.28;;
36371;SDS011;22398;51.346;12.372;2023-02-22T16:21:04;6.30;;;3.20;;
36371;SDS011;22398;51.346;12.372;2023-02-22T16:26:20;7.97;;;3.28;;
36371;SDS011;22398;51.346;12.372;2023-02-22T16:31:26;7.40;;;3.67;;
36371;SDS011;22398;51.346;12.372;2023-02-22T16:36:39;7.20;;;3.30;;
36371;SDS011;22398;51.346;12.372;2023-02-22T16:41:44;6.97;;;3.30;;
36371;SDS011;22398;51.346;12.372;2023-02-22T16:46:48;12.07;;;4.63;;
36371;SDS011;22398;51.346;12.372;2023-02-22T16:51:52;6.90;;;3.92;;
36371;SDS011;22398;51.346;12.372;2023-02-22T16:56:59;7.75;;;3.30;;
36371;SDS011;22398;51.346;12.372;2023-02-22T17:02:04;12.43;;;4.38;;
36371;SDS011;22398;51.346;12.372;2023-02-22T17:07:08;9.65;;;4.55;;
36371;SDS011;22398;51.346;12.372;2023-02-22T17:12:13;9.63;;;4.40;;
36371;SDS011;22398;51.346;12.372;2023-02-22T17:17:17;10.63;;;5.45;;
36371;SDS011;22398;51.346;12.372;2023-02-22T17:22:20;16.83;;;6.40;;
36371;SDS011;22398;51.346;12.372;2023-02-22T17:27:25;10.48;;;5.80;;
36371;SDS011;22398;51.346;12.372;2023-02-22T17:32:29;14.38;;;6.38;;
36371;SDS011;22398;51.346;12.372;2023-02-22T17:37:32;14.60;;;6.78;;
36371;SDS011;22398;51.346;12.372;2023-02-22T17:42:37;14.48;;;7.07;;
36371;SDS011;22398;51.346;12.372;2023-02-22T17:47:41;12.57;;;6.43;;
36371;SDS011;22398;51.346;12.372;2023-02-22T17:52:45;17.77;;;7.22;;
36371;SDS011;22398;51.346;12.372;2023-02-22T17:57:54;12.95;;;6.78;;
36371;SDS011;22398;51.346;12.372;2023-02-22T18:02:59;18.90;;;8.05;;
36371;SDS011;22398;51.346;12.372;2023-02-22T18:08:04;17.60;;;7.78;;
36371;SDS011;22398;51.346;12.372;2023-02-22T18:13:10;21.25;;;8.75;;
36371;SDS011;22398;51.346;12.372;2023-02-22T18:18:17;14.48;;;7.53;;
36371;SDS011;22398;51.346;12.372;2023-02-22T18:23:22;16.20;;;7.72;;
36371;SDS011;22398;51.346;12.372;2023-02-22T18:28:30;14.95;;;7.80;;
36371;SDS011;22398;51.346;12.372;2023-02-22T18:33:33;22.90;;;8.65;;
36371;SDS011;22398;51.346;12.372;2023-02-22T18:38:36;18.52;;;7.70;;
36371;SDS011;22398;51.346;12.372;2023-02-22T18:43:44;20.05;;;8.68;;
36371;SDS011;22398;51.346;12.372;2023-02-22T18:48:50;21.75;;;9.05;;
36371;SDS011;22398;51.346;12.372;2023-02-22T18:53:54;18.23;;;8.68;;
36371;SDS011;22398;51.346;12.372;2023-02-22T18:59:02;25.38;;;8.98;;
36371;SDS011;22398;51.346;12.372;2023-02-22T19:04:07;18.60;;;8.57;;
36371;SDS011;22398;51.346;12.372;2023-02-22T19:09:12;22.00;;;8.68;;
36371;SDS011;22398;51.346;12.372;2023-02-22T19:14:17;24.15;;;9.25;;
36371;SDS011;22398;51.346;12.372;2023-02-22T19:19:20;24.13;;;9.13;;
36371;SDS011;22398;51.346;12.372;2023-02-22T19:24:26;20.08;;;9.40;;
36371;SDS011;22398;51.346;12.372;2023-02-22T19:29:31;19.52;;;9.48;;
36371;SDS011;22398;51.346;12.372;2023-02-22T19:34:38;25.30;;;9.60;;
36371;SDS011;22398;51.346;12.372;2023-02-22T19:39:44;27.05;;;10.77;;
36371;SDS011;22398;51.346;12.372;2023-02-22T19:44:49;19.08;;;8.80;;
36371;SDS011;22398;51.346;12.372;2023-02-22T19:49:53;20.20;;;9.48;;
36371;SDS011;22398;51.346;12.372;2023-02-22T19:55:00;21.38;;;9.00;;
36371;SDS011;22398;51.346;12.372;2023-02-22T20:00:05;22.17;;;10.23;;
36371;SDS011;22398;51.346;12.372;2023-02-22T20:05:12;27.10;;;11.20;;
36371;SDS011;22398;51.346;12.372;2023-02-22T20:10:17;20.30;;;9.70;;
36371;SDS011;22398;51.346;12.372;2023-02-22T20:15:22;26.83;;;10.57;;
36371;SDS011;22398;51.346;12.372;2023-02-22T20:20:25;23.50;;;9.83;;
36371;SDS011;22398;51.346;12.372;2023-02-22T20:25:31;23.83;;;10.10;;
36371;SDS011;22398;51.346;12.372;2023-02-22T20:35:42;22.55;;;9.65;;
36371;SDS011;22398;51.346;12.372;2023-02-22T20:40:47;25.95;;;10.48;;
36371;SDS011;22398;51.346;12.372;2023-02-22T20:45:51;26.88;;;11.32;;
36371;SDS011;22398;51.346;12.372;2023-02-22T20:50:54;25.67;;;11.50;;
36371;SDS011;22398;51.346;12.372;2023-02-22T20:55:58;26.45;;;11.30;;
36371;SDS011;22398;51.346;12.372;2023-02-22T21:01:03;23.52;;;9.75;;
36371;SDS011;22398;51.346;12.372;2023-02-22T21:06:08;24.92;;;10.88;;
36371;SDS011;22398;51.346;12.372;2023-02-22T21:11:15;21.77;;;10.95;;
36371;SDS011;22398;51.346;12.372;2023-02-22T21:16:21;22.95;;;10.65;;
36371;SDS011;22398;51.346;12.372;2023-02-22T21:21:26;22.90;;;10.77;;
36371;SDS011;22398;51.346;12.372;2023-02-22T21:26:32;19.30;;;10.13;;
36371;SDS011;22398;51.346;12.372;2023-02-22T21:31:37;25.73;;;11.30;;
36371;SDS011;22398;51.346;12.372;2023-02-22T21:36:41;23.13;;;11.15;;
36371;SDS011;22398;51.346;12.372;2023-02-22T21:41:45;23.60;;;11.15;;
36371;SDS011;22398;51.346;12.372;2023-02-22T21:46:52;22.88;;;10.65;;
36371;SDS011;22398;51.346;12.372;2023-02-22T21:51:55;18.75;;;10.45;;
36371;SDS011;22398;51.346;12.372;2023-02-22T21:56:58;23.13;;;11.10;;
36371;SDS011;22398;51.346;12.372;2023-02-22T22:02:03;25.83;;;10.85;;
36371;SDS011;22398;51.346;12.372;2023-02-22T22:07:06;28.70;;;11.67;;
36371;SDS011;22398;51.346;12.372;2023-02-22T22:12:10;28.73;;;12.55;;
36371;SDS011;22398;51.346;12.372;2023-02-22T22:17:15;26.35;;;10.98;;
36371;SDS011;22398;51.346;12.372;2023-02-22T22:22:19;21.47;;;11.80;;
36371;SDS011;22398;51.346;12.372;2023-02-22T22:27:23;22.95;;;10.82;;
36371;SDS011;22398;51.346;12.372;2023-02-22T22:32:29;23.73;;;11.23;;
36371;SDS011;22398;51.346;12.372;2023-02-22T22:37:32;24.30;;;11.68;;
36371;SDS011;22398;51.346;12.372;2023-02-22T22:42:35;23.45;;;11.10;;
36371;SDS011;22398;51.346;12.372;2023-02-22T22:47:41;28.92;;;11.23;;
36371;SDS011;22398;51.346;12.372;2023-02-22T22:52:46;23.50;;;11.75;;
36371;SDS011;22398;51.346;12.372;2023-02-22T22:57:50;21.08;;;11.18;;
36371;SDS011;22398;51.346;12.372;2023-02-22T23:02:54;21.10;;;10.27;;
36371;SDS011;22398;51.346;12.372;2023-02-22T23:07:58;23.63;;;10.53;;
36371;SDS011;22398;51.346;12.372;2023-02-22T23:13:05;19.73;;;11.35;;
36371;SDS011;22398;51.346;12.372;2023-02-22T23:18:12;23.05;;;10.60;;
36371;SDS011;22398;51.346;12.372;2023-02-22T23:23:15;21.65;;;10.50;;
36371;SDS011;22398;51.346;12.372;2023-02-22T23:28:19;17.23;;;10.15;;
36371;SDS011;22398;51.346;12.372;2023-02-22T23:33:25;20.13;;;9.35;;
36371;SDS011;22398;51.346;12.372;2023-02-22T23:38:31;15.98;;;8.38;;
36371;SDS011;22398;51.346;12.372;2023-02-22T23:43:35;17.88;;;9.73;;
36371;SDS011;22398;51.346;12.372;2023-02-22T23:48:42;17.58;;;10.00;;
36371;SDS011;22398;51.346;12.372;2023-02-22T23:53:49;17.08;;;9.35;;
36371;SDS011;22398;51.346;12.372;2023-02-22T23:58:56;19.08;;;9.80;;
